イスタンブル の空港の天気 - METARとTAF

アタテュルク国際空港(イスタンブル) ( LTBA / IST ) - トルコ イスタンブル
飛行場実況気象(Metar)
観測時間04/27 19:20 +03 (04/27 16:20 UTC)
風向・風速東北東 4m/s
視程10km以上
天気現象
なし
気温23℃
湿度29%
気圧1017hPa
METARLTBA 271620Z 07007KT CAVOK 23/04 Q1017 NOSIG RMK RWY17L 05007KT 020V080 RWY05 09003KT 050V110 RWY23 08004KT 040V140
過去の天気等 Google飛行場航空写真 Wunderground天気予報

過去48時間のMETAR

飛行場予報(TAF)
発表時間: 4/27 13:40 +03 (4/27 10:40 UTC)
予報対象時間: 27日15時 +03 ~ 28日21時 +03
風向・風速不定 1m/s
視程10km以上
なし
28日3時 +03 から 確率 40% で
視程4,000m
天気現象もや
TAF LTBA 271040Z 2712/2818 VRB02KT CAVOK
PROB40 2800/2804 4000 BR